Rusty Zeller — WDF3821 — position and weather

sailwx.info

Track history (hours):
 
Tides and Currents Weather Stations Pressure Air Temp Water Temp Dewpoint Dewpoint Depression Visibility Wind Speed Wind Dir Waves Ship Positions

Rusty Zeller

Owner: Florida Marine Transporters, Inc., Mandeville, LA. More information available from US FCC via Universal Licensing System and Coast Guard Vessel Documentation Center.

Last reported at 2017-Sep-12 04:20 UTC. Time now 2017-Sep-19 19:13 UTC.
Position N 32°40' W 091°07'.

Length 43 m; draft 3.2 m.

Type: Other ship. MMSI: 367444420.

Date/timePositionNaut miles runAvg speedWind from/ knotsBaromVisibWave heightAir tempDewpointWater temp
2017-Sep-12 04:20N 32°40' W 091°07'3 4.6
2017-Sep-12 03:36N 32°37' W 091°09'1 5.8
2017-Sep-12 03:30N 32°37' W 091°09'3 5.8
2017-Sep-12 03:00N 32°34' W 091°06'3 5.5
2017-Sep-12 02:30N 32°32' W 091°06'3 6.1
2017-Sep-12 02:00N 32°29' W 091°07'3 5.9
2017-Sep-12 01:30N 32°27' W 091°04'3 6.4
2017-Sep-12 01:00N 32°26' W 091°01'3 5.3
2017-Sep-12 00:30N 32°23' W 090°60'2 4.9
2017-Sep-12 00:00N 32°21' W 090°58'3 6.6
2017-Sep-11 23:30N 32°20' W 090°54'3 5.6
2017-Sep-11 23:00N 32°18' W 090°56'3 6.1
2017-Sep-11 22:30N 32°16' W 090°58'1 2.9
2017-Sep-11 22:00N 32°14' W 090°59'2 3.5
2017-Sep-11 21:30N 32°13' W 090°59'3 5.4
2017-Sep-11 21:00N 32°10' W 091°00'3 5.2
2017-Sep-11 20:30N 32°08' W 091°01'2 4.4
2017-Sep-11 20:00N 32°08' W 091°03'3 5.3
2017-Sep-11 19:30N 32°08' W 091°06'26 4.2
2017-Sep-11 13:22N 31°45' W 091°22'3 6.1
2017-Sep-11 12:56N 31°43' W 091°24'18 0.6
2017-Sep-10 07:49N 31°57' W 091°11'6 7.9
2017-Sep-10 07:04N 32°00' W 091°05'1 8.1
2017-Sep-10 07:00N 32°01' W 091°05'4 7.4
2017-Sep-10 06:24N 32°05' W 091°05'3 7.7
2017-Sep-10 06:00N 32°08' W 091°06'4 7.6
2017-Sep-10 05:30N 32°07' W 091°02'4 7.9
2017-Sep-10 05:00N 32°11' W 090°60'4 8.6
2017-Sep-10 04:30N 32°15' W 090°59'3 7.0
2017-Sep-10 04:00N 32°17' W 090°56'3 6.4
2017-Sep-10 03:30N 32°20' W 090°55'4 8.4
2017-Sep-10 03:00N 32°21' W 090°59'4 7.5
2017-Sep-10 02:30N 32°25' W 090°60'4 8.5
2017-Sep-10 02:00N 32°27' W 091°04'4 7.8
2017-Sep-10 01:30N 32°30' W 091°07'4 8.1
2017-Sep-10 01:00N 32°34' W 091°06'6 7.5
2017-Sep-10 00:10N 32°40' W 091°08'  
Track history (hours):
 
Tides and Currents Weather Stations Pressure Air Temp Water Temp Dewpoint Dewpoint Depression Visibility Wind Speed Wind Dir Waves Ship Positions

Rusty Zeller

Owner: Florida Marine Transporters, Inc., Mandeville, LA. More information available from US FCC via Universal Licensing System and Coast Guard Vessel Documentation Center.

Last reported at 2017-Sep-12 04:20 UTC. Time now 2017-Sep-19 19:13 UTC.
Position N 32°40' W 091°07'.

Length 43 m; draft 3.2 m.

Type: Other ship. MMSI: 367444420.

Date/timePositionNaut miles runAvg speedWind from/ knotsBaromVisibWave heightAir tempDewpointWater temp
2017-Sep-12 04:20N 32°40' W 091°07'3 4.6
2017-Sep-12 03:36N 32°37' W 091°09'1 5.8
2017-Sep-12 03:30N 32°37' W 091°09'3 5.8
2017-Sep-12 03:00N 32°34' W 091°06'3 5.5
2017-Sep-12 02:30N 32°32' W 091°06'3 6.1
2017-Sep-12 02:00N 32°29' W 091°07'3 5.9
2017-Sep-12 01:30N 32°27' W 091°04'3 6.4
2017-Sep-12 01:00N 32°26' W 091°01'3 5.3
2017-Sep-12 00:30N 32°23' W 090°60'2 4.9
2017-Sep-12 00:00N 32°21' W 090°58'3 6.6
2017-Sep-11 23:30N 32°20' W 090°54'3 5.6
2017-Sep-11 23:00N 32°18' W 090°56'3 6.1
2017-Sep-11 22:30N 32°16' W 090°58'1 2.9
2017-Sep-11 22:00N 32°14' W 090°59'2 3.5
2017-Sep-11 21:30N 32°13' W 090°59'3 5.4
2017-Sep-11 21:00N 32°10' W 091°00'3 5.2
2017-Sep-11 20:30N 32°08' W 091°01'2 4.4
2017-Sep-11 20:00N 32°08' W 091°03'3 5.3
2017-Sep-11 19:30N 32°08' W 091°06'26 4.2
2017-Sep-11 13:22N 31°45' W 091°22'3 6.1
2017-Sep-11 12:56N 31°43' W 091°24'18 0.6
2017-Sep-10 07:49N 31°57' W 091°11'6 7.9
2017-Sep-10 07:04N 32°00' W 091°05'1 8.1
2017-Sep-10 07:00N 32°01' W 091°05'4 7.4
2017-Sep-10 06:24N 32°05' W 091°05'3 7.7
2017-Sep-10 06:00N 32°08' W 091°06'4 7.6
2017-Sep-10 05:30N 32°07' W 091°02'4 7.9
2017-Sep-10 05:00N 32°11' W 090°60'4 8.6
2017-Sep-10 04:30N 32°15' W 090°59'3 7.0
2017-Sep-10 04:00N 32°17' W 090°56'3 6.4
2017-Sep-10 03:30N 32°20' W 090°55'4 8.4
2017-Sep-10 03:00N 32°21' W 090°59'4 7.5
2017-Sep-10 02:30N 32°25' W 090°60'4 8.5
2017-Sep-10 02:00N 32°27' W 091°04'4 7.8
2017-Sep-10 01:30N 32°30' W 091°07'4 8.1
2017-Sep-10 01:00N 32°34' W 091°06'6 7.5
2017-Sep-10 00:10N 32°40' W 091°08'  

Dump ship's entire track history